Time;durP1;ratioP1;P1;durP2;ratioP2;P2;SDS_P1;SDS_P2;PMS_P1;PMS_P2;Temp;Humidity;BMP_temperature;BMP_pressure;BME280_temperature;BME280_humidity;BME280_pressure;Samples;Min_cycle;Max_cycle;Signal;HPM_P1;HPM_P2
2023/09/23 00:00:08;;;;;;;2.00;1.40;;;;;;;;;;5014317;28;20072;-75
2023/09/23 00:02:35;;;;;;;3.45;1.40;;;;;;;;;;5014886;28;20072;-74
2023/09/23 00:05:05;;;;;;;1.90;1.42;;;;;;;;;;5014529;28;20033;-74
2023/09/23 00:07:31;;;;;;;2.22;1.52;;;;;;;;;;5014481;28;20025;-75
2023/09/23 00:09:57;;;;;;;4.40;1.95;;;;;;;;;;5014234;28;20535;-75
2023/09/23 00:12:24;;;;;;;2.85;1.30;;;;;;;;;;5014042;28;20030;-74
2023/09/23 00:14:50;;;;;;;4.38;1.50;;;;;;;;;;5014270;28;20022;-74
2023/09/23 00:17:16;;;;;;;1.88;1.65;;;;;;;;;;5013987;28;20393;-74
2023/09/23 00:19:42;;;;;;;1.95;1.48;;;;;;;;;;5014197;28;20125;-75
2023/09/23 00:22:09;;;;;;;4.88;1.50;;;;;;;;;;5013531;28;20475;-74
2023/09/23 00:24:35;;;;;;;1.60;1.45;;;;;;;;;;5014208;28;20026;-74
2023/09/23 00:27:01;;;;;;;3.35;1.65;;;;;;;;;;5013866;28;20021;-74
2023/09/23 00:29:28;;;;;;;2.95;1.52;;;;;;;;;;5013697;28;20657;-74
2023/09/23 00:31:54;;;;;;;3.22;1.70;;;;;;;;;;5013270;28;20511;-74
2023/09/23 00:34:23;;;;;;;3.28;1.70;;;;;;;;;;5013315;28;20049;-74
2023/09/23 00:36:50;;;;;;;2.72;1.60;;;;;;;;;;5013847;28;20101;-74
2023/09/23 00:39:17;;;;;;;3.15;1.45;;;;;;;;;;5013754;28;20030;-74
2023/09/23 00:41:43;;;;;;;2.13;1.60;;;;;;;;;;5013813;28;20428;-74
2023/09/23 00:44:10;;;;;;;2.22;1.73;;;;;;;;;;5013466;28;20022;-74
2023/09/23 00:46:36;;;;;;;2.15;1.65;;;;;;;;;;5013385;28;20468;-75
2023/09/23 00:49:07;;;;;;;2.97;2.00;;;;;;;;;;5013326;28;20022;-74
2023/09/23 00:51:37;;;;;;;3.83;1.90;;;;;;;;;;5013386;28;20030;-74
2023/09/23 00:54:09;;;;;;;;;;;;;;;;;;5013829;28;20109;-74
2023/09/23 00:56:36;;;;;;;5.30;2.10;;;;;;;;;;5013648;28;19940;-74
2023/09/23 00:59:05;;;;;;;2.60;2.13;;;;;;;;;;5013183;28;20461;-74
2023/09/23 01:01:31;;;;;;;2.80;2.45;;;;;;;;;;5013404;28;20053;-74
2023/09/23 01:03:57;;;;;;;4.15;2.92;;;;;;;;;;5013101;28;20062;-74
2023/09/23 01:06:27;;;;;;;4.05;2.90;;;;;;;;;;5013154;28;20436;-74
2023/09/23 01:08:57;;;;;;;3.92;3.53;;;;;;;;;;5013581;28;20014;-74
2023/09/23 01:11:25;;;;;;;4.72;3.13;;;;;;;;;;5013275;28;20033;-74
2023/09/23 01:13:52;;;;;;;5.38;3.53;;;;;;;;;;5012842;28;20105;-74
2023/09/23 01:16:21;;;;;;;5.82;3.65;;;;;;;;;;5013016;28;20033;-74
2023/09/23 01:18:49;;;;;;;6.28;3.53;;;;;;;;;;5013101;28;20025;-74
2023/09/23 01:21:15;;;;;;;5.45;2.97;;;;;;;;;;5012564;28;20073;-74
2023/09/23 01:23:43;;;;;;;6.05;3.35;;;;;;;;;;5012964;28;20101;-74
2023/09/23 01:26:13;;;;;;;4.68;3.20;;;;;;;;;;5013204;28;20033;-75
2023/09/23 01:28:39;;;;;;;9.27;3.53;;;;;;;;;;5013118;28;20022;-74
2023/09/23 01:31:06;;;;;;;4.10;2.92;;;;;;;;;;5012834;28;20028;-74
2023/09/23 01:33:34;;;;;;;6.78;3.38;;;;;;;;;;5012796;28;20058;-74
2023/09/23 01:36:03;;;;;;;5.60;3.50;;;;;;;;;;5012971;28;20064;-74
2023/09/23 01:38:30;;;;;;;3.67;3.10;;;;;;;;;;5012739;28;20037;-74
2023/09/23 01:40:56;;;;;;;5.82;3.65;;;;;;;;;;5012709;28;20030;-74
2023/09/23 01:43:22;;;;;;;3.85;3.30;;;;;;;;;;5012724;28;20029;-74
2023/09/23 01:45:48;;;;;;;4.45;3.20;;;;;;;;;;5018662;28;20029;-74
2023/09/23 01:48:14;;;;;;;3.20;2.90;;;;;;;;;;5019412;28;20053;-74
2023/09/23 01:50:41;;;;;;;3.75;3.00;;;;;;;;;;5018549;28;20026;-74
2023/09/23 01:53:09;;;;;;;5.13;3.30;;;;;;;;;;5018903;28;20022;-74
2023/09/23 01:55:36;;;;;;;3.60;3.30;;;;;;;;;;5018784;28;20140;-75
2023/09/23 01:58:02;;;;;;;5.22;3.50;;;;;;;;;;5019231;28;20029;-74
2023/09/23 02:00:36;;;;;;;5.45;3.42;;;;;;;;;;5019088;28;20693;-74
2023/09/23 02:03:02;;;;;;;5.47;3.40;;;;;;;;;;5019213;28;20014;-74
2023/09/23 02:05:28;;;;;;;3.28;2.97;;;;;;;;;;5019178;28;20034;-74
2023/09/23 02:07:55;;;;;;;3.65;3.03;;;;;;;;;;5018972;28;20048;-75
2023/09/23 02:10:28;;;;;;;5.20;2.60;;;;;;;;;;5018828;28;20445;-75
2023/09/23 02:12:54;;;;;;;6.00;2.90;;;;;;;;;;5019237;28;20018;-74
2023/09/23 02:15:20;;;;;;;3.92;2.55;;;;;;;;;;5018814;28;20018;-75
2023/09/23 02:17:47;;;;;;;3.22;2.30;;;;;;;;;;5018875;28;20026;-75
2023/09/23 02:20:21;;;;;;;6.65;2.25;;;;;;;;;;5018632;28;20135;-75
2023/09/23 02:22:48;;;;;;;4.13;2.08;;;;;;;;;;5019163;28;20483;-75
2023/09/23 02:25:15;;;;;;;6.55;2.00;;;;;;;;;;5018904;28;20037;-74
2023/09/23 02:27:44;;;;;;;3.75;2.10;;;;;;;;;;5018944;28;20026;-74
2023/09/23 02:30:11;;;;;;;5.88;1.75;;;;;;;;;;5018716;28;20014;-74
2023/09/23 02:32:40;;;;;;;4.50;1.70;;;;;;;;;;5018880;28;20030;-74
2023/09/23 02:35:16;;;;;;;3.13;1.73;;;;;;;;;;5018720;28;20022;-74
2023/09/23 02:37:44;;;;;;;5.15;2.00;;;;;;;;;;5018879;28;20109;-74
2023/09/23 02:40:14;;;;;;;3.47;2.05;;;;;;;;;;5018579;28;20014;-74
2023/09/23 02:42:44;;;;;;;6.68;2.10;;;;;;;;;;5018848;28;20025;-74
2023/09/23 02:45:10;;;;;;;3.33;1.98;;;;;;;;;;5018633;28;20461;-74
2023/09/23 02:47:38;;;;;;;5.38;2.08;;;;;;;;;;5018577;28;20026;-74
2023/09/23 02:50:09;;;;;;;3.88;2.10;;;;;;;;;;5018650;28;20049;-74
2023/09/23 02:52:35;;;;;;;4.38;2.40;;;;;;;;;;5018956;28;20022;-74
2023/09/23 02:55:01;;;;;;;2.35;1.80;;;;;;;;;;5018851;28;20022;-74
2023/09/23 02:57:29;;;;;;;2.13;1.60;;;;;;;;;;5014289;28;20057;-74
2023/09/23 02:59:57;;;;;;;3.55;1.77;;;;;;;;;;5015616;28;20038;-74
2023/09/23 03:02:27;;;;;;;3.83;1.60;;;;;;;;;;5015685;28;20026;-74
2023/09/23 03:04:58;;;;;;;;;;;;;;;;;;5015921;28;20072;-74
2023/09/23 03:07:27;;;;;;;4.05;1.90;;;;;;;;;;5015573;28;19905;-74
2023/09/23 03:09:55;;;;;;;4.00;1.90;;;;;;;;;;5015511;28;20021;-74
2023/09/23 03:12:23;;;;;;;4.60;3.05;;;;;;;;;;5015349;28;20052;-74
2023/09/23 03:14:51;;;;;;;3.33;2.90;;;;;;;;;;5015449;28;20113;-74
2023/09/23 03:17:21;;;;;;;4.90;3.22;;;;;;;;;;5015373;28;20014;-74
2023/09/23 03:19:50;;;;;;;5.88;3.80;;;;;;;;;;5015689;28;20472;-74
2023/09/23 03:22:21;;;;;;;8.73;4.95;;;;;;;;;;5015026;28;20058;-74
2023/09/23 03:24:48;;;;;;;9.65;4.90;;;;;;;;;;5015309;28;20018;-74
2023/09/23 03:27:15;;;;;;;9.05;5.60;;;;;;;;;;5015014;28;20357;-74
2023/09/23 03:29:41;;;;;;;13.15;7.07;;;;;;;;;;5014931;28;20021;-74
2023/09/23 03:32:07;;;;;;;10.55;6.57;;;;;;;;;;5014737;28;20037;-74
2023/09/23 03:34:37;;;;;;;8.05;5.80;;;;;;;;;;5014718;28;20014;-74
2023/09/23 03:37:04;;;;;;;9.23;5.93;;;;;;;;;;5014962;28;20018;-74
2023/09/23 03:39:30;;;;;;;10.90;5.93;;;;;;;;;;5014822;28;20121;-74
2023/09/23 03:41:56;;;;;;;7.65;5.47;;;;;;;;;;5014908;28;20026;-74
2023/09/23 03:44:22;;;;;;;7.97;6.05;;;;;;;;;;5014558;28;20033;-74
2023/09/23 03:46:50;;;;;;;9.20;5.55;;;;;;;;;;5014526;28;20030;-74
2023/09/23 03:49:17;;;;;;;7.97;6.18;;;;;;;;;;5014686;28;20018;-74
2023/09/23 03:51:43;;;;;;;9.93;6.90;;;;;;;;;;5014714;28;20022;-74
2023/09/23 03:54:10;;;;;;;9.20;6.22;;;;;;;;;;5014928;28;20080;-74
2023/09/23 03:56:37;;;;;;;9.52;6.30;;;;;;;;;;5014615;28;20029;-74
2023/09/23 03:59:05;;;;;;;9.82;6.43;;;;;;;;;;5014568;28;20073;-74
2023/09/23 04:01:32;;;;;;;9.35;6.85;;;;;;;;;;5014192;28;20018;-75
2023/09/23 04:03:58;;;;;;;10.10;6.93;;;;;;;;;;4996569;28;20022;-74
2023/09/23 04:06:25;;;;;;;8.65;6.40;;;;;;;;;;5014315;28;20031;-74
2023/09/23 04:08:52;;;;;;;8.82;6.55;;;;;;;;;;5014082;28;20021;-74
2023/09/23 04:11:18;;;;;;;10.23;6.18;;;;;;;;;;4996539;28;20096;-74
2023/09/23 04:13:44;;;;;;;8.23;6.35;;;;;;;;;;5014261;28;20121;-74
2023/09/23 04:16:11;;;;;;;7.35;5.85;;;;;;;;;;5013710;28;20025;-74
2023/09/23 04:18:37;;;;;;;8.23;5.80;;;;;;;;;;5014070;28;20100;-74
2023/09/23 04:21:03;;;;;;;7.45;6.00;;;;;;;;;;5013464;28;20568;-74
2023/09/23 04:23:29;;;;;;;8.38;6.60;;;;;;;;;;5014024;28;20052;-74
2023/09/23 04:25:56;;;;;;;9.02;6.15;;;;;;;;;;5013630;28;20062;-74
2023/09/23 04:28:25;;;;;;;9.27;5.90;;;;;;;;;;5013745;28;20468;-74
2023/09/23 04:30:54;;;;;;;9.98;6.88;;;;;;;;;;5013712;28;20033;-74
2023/09/23 04:33:20;;;;;;;7.15;6.45;;;;;;;;;;5013633;28;20033;-73
2023/09/23 04:35:48;;;;;;;9.52;6.40;;;;;;;;;;5013368;28;20029;-74
2023/09/23 04:38:15;;;;;;;6.95;6.15;;;;;;;;;;5013703;28;20364;-74
2023/09/23 04:40:42;;;;;;;7.07;6.18;;;;;;;;;;5013820;28;20024;-74
2023/09/23 04:43:10;;;;;;;9.07;6.75;;;;;;;;;;5013539;28;20056;-74
2023/09/23 04:45:36;;;;;;;8.15;6.57;;;;;;;;;;5013735;28;20018;-74
2023/09/23 04:48:03;;;;;;;9.00;6.22;;;;;;;;;;5013313;28;20100;-74
2023/09/23 04:50:29;;;;;;;10.35;6.13;;;;;;;;;;5013216;28;20033;-73
2023/09/23 04:52:55;;;;;;;10.52;6.72;;;;;;;;;;5013419;28;20445;-74
2023/09/23 04:55:22;;;;;;;8.50;6.40;;;;;;;;;;5013338;28;20053;-73
2023/09/23 04:57:48;;;;;;;9.60;5.38;;;;;;;;;;5013155;28;20527;-74
2023/09/23 05:00:20;;;;;;;8.55;6.03;;;;;;;;;;5013130;28;20069;-74
2023/09/23 05:02:49;;;;;;;12.00;5.28;;;;;;;;;;5013219;28;20072;-74
2023/09/23 05:05:15;;;;;;;15.70;6.32;;;;;;;;;;5013182;28;20101;-74
2023/09/23 05:07:41;;;;;;;8.20;5.85;;;;;;;;;;5013322;28;20030;-74
2023/09/23 05:10:07;;;;;;;7.70;6.05;;;;;;;;;;5013135;28;20026;-74
2023/09/23 05:12:34;;;;;;;9.45;5.97;;;;;;;;;;5012941;28;20113;-74
2023/09/23 05:15:00;;;;;;;12.02;6.40;;;;;;;;;;5013008;28;20026;-74
2023/09/23 05:17:28;;;;;;;11.60;6.80;;;;;;;;;;5013232;28;20461;-74
2023/09/23 05:19:54;;;;;;;11.95;6.75;;;;;;;;;;5012531;28;20072;-74
2023/09/23 05:22:20;;;;;;;11.98;7.07;;;;;;;;;;5011904;28;20042;-74
2023/09/23 05:24:47;;;;;;;11.50;7.00;;;;;;;;;;5012584;28;20068;-74
2023/09/23 05:27:14;;;;;;;11.40;6.47;;;;;;;;;;5012928;28;20080;-74
2023/09/23 05:29:41;;;;;;;9.10;6.53;;;;;;;;;;5012674;28;20026;-74
2023/09/23 05:32:10;;;;;;;12.18;6.47;;;;;;;;;;4994826;28;20037;-74
2023/09/23 05:34:39;;;;;;;14.48;6.32;;;;;;;;;;5012593;28;20017;-74
2023/09/23 05:37:12;;;;;;;9.68;5.93;;;;;;;;;;4994964;28;20030;-74
2023/09/23 05:39:44;;;;;;;11.15;6.20;;;;;;;;;;5012576;28;20384;-74
2023/09/23 05:42:10;;;;;;;10.80;7.18;;;;;;;;;;5012791;28;20018;-75
2023/09/23 05:44:36;;;;;;;14.35;7.00;;;;;;;;;;5012589;28;20108;-74
2023/09/23 05:47:02;;;;;;;13.68;6.55;;;;;;;;;;5012528;28;20104;-74
2023/09/23 05:49:28;;;;;;;15.45;6.85;;;;;;;;;;5012472;28;20030;-74
2023/09/23 05:51:54;;;;;;;12.32;7.75;;;;;;;;;;5012515;28;20516;-74
2023/09/23 05:54:23;;;;;;;11.82;7.72;;;;;;;;;;5012321;28;20025;-74
2023/09/23 05:56:49;;;;;;;11.13;6.70;;;;;;;;;;5012677;28;20034;-74
2023/09/23 05:59:15;;;;;;;19.60;8.65;;;;;;;;;;5012504;28;20123;-74
2023/09/23 06:01:42;;;;;;;18.15;8.75;;;;;;;;;;5012617;28;20049;-74
2023/09/23 06:04:11;;;;;;;17.40;8.73;;;;;;;;;;5012332;28;20383;-74
2023/09/23 06:06:40;;;;;;;18.67;9.02;;;;;;;;;;5012424;28;20549;-74
2023/09/23 06:09:06;;;;;;;16.40;9.02;;;;;;;;;;5012416;28;20385;-74
2023/09/23 06:11:33;;;;;;;18.80;9.30;;;;;;;;;;5012642;28;20513;-74
2023/09/23 06:13:59;;;;;;;14.85;8.27;;;;;;;;;;5012426;28;20026;-74
2023/09/23 06:16:25;;;;;;;14.35;7.78;;;;;;;;;;5012185;28;20527;-74
2023/09/23 06:18:51;;;;;;;13.45;8.45;;;;;;;;;;5012232;28;20041;-74
2023/09/23 06:21:17;;;;;;;12.43;7.78;;;;;;;;;;5012251;28;20053;-74
2023/09/23 06:23:44;;;;;;;14.35;7.18;;;;;;;;;;5012550;28;20057;-74
2023/09/23 06:26:10;;;;;;;12.00;6.32;;;;;;;;;;5012293;28;20558;-74
2023/09/23 06:28:37;;;;;;;18.58;7.13;;;;;;;;;;5012506;28;20076;-74
2023/09/23 06:31:03;;;;;;;18.33;6.60;;;;;;;;;;5014037;28;20053;-74
2023/09/23 06:33:30;;;;;;;11.70;6.30;;;;;;;;;;5015898;28;20026;-74
2023/09/23 06:35:55;;;;;;;7.43;4.47;;;;;;;;;;5015855;28;20519;-75
2023/09/23 06:38:21;;;;;;;12.27;4.93;;;;;;;;;;5015624;28;20038;-74
2023/09/23 06:40:48;;;;;;;12.43;4.97;;;;;;;;;;5015819;28;20026;-74
2023/09/23 06:43:14;;;;;;;10.23;4.40;;;;;;;;;;4999323;28;20031;-74
2023/09/23 06:45:40;;;;;;;9.68;4.20;;;;;;;;;;5013855;28;20649;-74
2023/09/23 06:48:06;;;;;;;5.97;4.15;;;;;;;;;;5015667;28;20030;-74
2023/09/23 06:50:32;;;;;;;7.32;3.97;;;;;;;;;;5015636;28;20032;-74
2023/09/23 06:52:58;;;;;;;5.55;3.45;;;;;;;;;;5015533;28;20029;-74
2023/09/23 06:55:24;;;;;;;5.38;3.15;;;;;;;;;;5015605;28;20457;-74
2023/09/23 06:57:50;;;;;;;4.18;3.10;;;;;;;;;;5015198;28;20124;-74
2023/09/23 07:00:16;;;;;;;6.10;3.38;;;;;;;;;;5015537;28;20080;-75
2023/09/23 07:02:44;;;;;;;5.75;3.00;;;;;;;;;;4997679;28;20022;-75
2023/09/23 07:05:10;;;;;;;4.95;2.00;;;;;;;;;;5015652;28;20028;-75
2023/09/23 07:07:36;;;;;;;3.08;1.60;;;;;;;;;;5015387;28;20101;-75
2023/09/23 07:10:04;;;;;;;4.50;1.38;;;;;;;;;;5015472;28;20121;-75
2023/09/23 07:12:30;;;;;;;1.92;1.10;;;;;;;;;;5015476;28;20101;-75
2023/09/23 07:14:58;;;;;;;2.03;0.95;;;;;;;;;;5015340;28;20445;-75
2023/09/23 07:17:26;;;;;;;2.42;0.88;;;;;;;;;;5015429;28;20080;-75
2023/09/23 07:19:52;;;;;;;2.20;0.90;;;;;;;;;;5014984;28;20036;-75
2023/09/23 07:22:17;;;;;;;7.05;1.10;;;;;;;;;;5014585;28;20109;-75
2023/09/23 07:24:44;;;;;;;2.45;0.90;;;;;;;;;;5014990;28;20076;-75
2023/09/23 07:27:09;;;;;;;2.25;0.90;;;;;;;;;;5015274;28;20033;-75
2023/09/23 07:29:35;;;;;;;1.88;1.10;;;;;;;;;;5014813;28;20029;-75
2023/09/23 07:32:01;;;;;;;4.35;1.20;;;;;;;;;;5014821;28;20101;-75
2023/09/23 07:34:27;;;;;;;3.13;1.20;;;;;;;;;;5014795;28;20037;-75
2023/09/23 07:36:53;;;;;;;2.63;1.10;;;;;;;;;;5014735;28;20034;-75
2023/09/23 07:39:19;;;;;;;0.95;0.90;;;;;;;;;;5014533;28;20091;-76
2023/09/23 07:41:46;;;;;;;2.17;1.10;;;;;;;;;;5014078;28;20033;-75
2023/09/23 07:44:12;;;;;;;1.63;0.85;;;;;;;;;;5014649;28;20030;-75
2023/09/23 07:46:38;;;;;;;2.13;1.02;;;;;;;;;;5014627;28;20025;-75
2023/09/23 07:49:05;;;;;;;1.92;0.93;;;;;;;;;;5014500;28;20618;-76
2023/09/23 07:51:31;;;;;;;2.55;0.75;;;;;;;;;;5014856;28;20101;-76
2023/09/23 07:53:57;;;;;;;6.75;0.95;;;;;;;;;;5014504;28;20058;-76
2023/09/23 07:56:23;;;;;;;4.22;1.00;;;;;;;;;;5014242;28;20034;-76
2023/09/23 07:58:49;;;;;;;2.10;1.08;;;;;;;;;;5014286;28;20100;-76
2023/09/23 08:01:15;;;;;;;4.32;0.88;;;;;;;;;;5014628;28;20026;-76
2023/09/23 08:03:41;;;;;;;2.30;0.70;;;;;;;;;;5014092;28;20208;-76
2023/09/23 08:06:07;;;;;;;2.20;0.70;;;;;;;;;;5014545;28;20030;-76
2023/09/23 08:08:33;;;;;;;1.77;0.60;;;;;;;;;;5014455;28;20026;-76
2023/09/23 08:10:59;;;;;;;3.20;0.73;;;;;;;;;;5014214;28;20114;-76
2023/09/23 08:13:26;;;;;;;4.88;0.70;;;;;;;;;;5014137;28;20054;-76
2023/09/23 08:15:57;;;;;;;1.67;0.52;;;;;;;;;;5014374;28;20633;-76
2023/09/23 08:18:23;;;;;;;2.58;0.70;;;;;;;;;;5014101;28;20026;-76
2023/09/23 08:20:56;;;;;;;2.13;0.68;;;;;;;;;;5013388;28;20054;-76
2023/09/23 08:23:22;;;;;;;1.00;0.70;;;;;;;;;;5014097;28;20021;-76
2023/09/23 08:25:49;;;;;;;2.17;0.60;;;;;;;;;;5013839;28;20049;-76
2023/09/23 08:28:15;;;;;;;2.38;0.50;;;;;;;;;;5013701;28;20026;-76
2023/09/23 08:30:44;;;;;;;3.53;0.68;;;;;;;;;;5013602;28;20018;-76
2023/09/23 08:33:13;;;;;;;1.60;0.40;;;;;;;;;;5013715;28;20097;-75
2023/09/23 08:35:41;;;;;;;2.22;0.60;;;;;;;;;;5013778;28;20033;-75
2023/09/23 08:38:08;;;;;;;2.30;0.60;;;;;;;;;;5013109;28;20034;-76
2023/09/23 08:40:38;;;;;;;4.53;1.02;;;;;;;;;;5013499;28;20509;-76
2023/09/23 08:43:05;;;;;;;2.05;0.60;;;;;;;;;;5013540;28;20018;-76
2023/09/23 08:45:33;;;;;;;2.92;0.52;;;;;;;;;;5013472;28;20021;-76
2023/09/23 08:47:59;;;;;;;0.73;0.55;;;;;;;;;;5013398;28;20033;-76
2023/09/23 08:50:25;;;;;;;4.05;0.60;;;;;;;;;;5013107;28;20032;-76
2023/09/23 08:52:55;;;;;;;2.13;0.60;;;;;;;;;;5013206;28;20133;-76
2023/09/23 08:55:24;;;;;;;1.23;0.40;;;;;;;;;;5012280;28;20033;-76
2023/09/23 08:57:50;;;;;;;1.47;0.60;;;;;;;;;;5013299;28;20377;-76
2023/09/23 09:00:18;;;;;;;1.65;0.50;;;;;;;;;;5013208;28;20268;-76
2023/09/23 09:02:44;;;;;;;3.42;0.82;;;;;;;;;;5013523;28;20045;-76
2023/09/23 09:05:10;;;;;;;2.03;0.63;;;;;;;;;;5013140;28;20601;-76
2023/09/23 09:07:37;;;;;;;1.55;0.60;;;;;;;;;;5013079;28;20026;-76
2023/09/23 09:10:04;;;;;;;1.15;0.52;;;;;;;;;;5011910;28;20025;-76
2023/09/23 09:12:31;;;;;;;1.55;0.45;;;;;;;;;;5013229;28;20028;-76
2023/09/23 09:14:57;;;;;;;4.85;0.65;;;;;;;;;;5012954;28;20029;-76
2023/09/23 09:17:23;;;;;;;1.52;0.60;;;;;;;;;;5012953;28;20026;-76
2023/09/23 09:19:49;;;;;;;2.72;0.60;;;;;;;;;;5012870;28;20469;-75
2023/09/23 09:22:25;;;;;;;3.20;0.50;;;;;;;;;;5012532;28;20056;-76
2023/09/23 09:24:51;;;;;;;1.85;0.70;;;;;;;;;;5012933;28;20032;-76
2023/09/23 09:27:17;;;;;;;0.85;0.50;;;;;;;;;;5012921;28;20021;-76
2023/09/23 09:29:43;;;;;;;1.73;0.60;;;;;;;;;;5013144;28;20029;-76
2023/09/23 09:32:10;;;;;;;2.05;0.43;;;;;;;;;;5012697;28;20054;-75
2023/09/23 09:34:55;;;;;;;2.92;0.50;;;;;;;;;;5012633;28;20030;-76
2023/09/23 09:37:23;;;;;;;1.10;0.55;;;;;;;;;;5012635;28;20022;-75
2023/09/23 09:39:57;;;;;;;1.92;0.50;;;;;;;;;;5012554;28;20516;-75
2023/09/23 09:42:30;;;;;;;1.58;0.40;;;;;;;;;;5012628;28;20399;-76
2023/09/23 09:44:57;;;;;;;1.70;0.50;;;;;;;;;;5012677;28;20022;-76
2023/09/23 09:47:23;;;;;;;1.20;0.50;;;;;;;;;;5012781;28;20029;-76
2023/09/23 09:49:53;;;;;;;1.52;0.40;;;;;;;;;;5012731;28;20029;-76
2023/09/23 09:52:32;;;;;;;1.85;0.57;;;;;;;;;;5012612;28;20030;-75
2023/09/23 09:54:58;;;;;;;;;;;;;;;;;;5013120;28;20030;-76
2023/09/23 09:57:29;;;;;;;1.17;0.50;;;;;;;;;;5012780;28;20476;-76
2023/09/23 10:00:01;;;;;;;0.88;0.68;;;;;;;;;;5012685;28;20022;-76
2023/09/23 10:02:28;;;;;;;1.75;0.60;;;;;;;;;;5012577;28;20400;-76
2023/09/23 10:04:54;;;;;;;2.70;0.70;;;;;;;;;;5011215;28;20033;-76
2023/09/23 10:07:22;;;;;;;1.80;0.70;;;;;;;;;;5016501;28;20492;-76
2023/09/23 10:09:53;;;;;;;4.32;1.00;;;;;;;;;;5016688;28;20464;-76
2023/09/23 10:12:25;;;;;;;2.53;0.50;;;;;;;;;;5016625;28;20049;-76
2023/09/23 10:14:57;;;;;;;5.38;1.10;;;;;;;;;;5016593;28;20105;-76
2023/09/23 10:17:31;;;;;;;1.50;0.70;;;;;;;;;;5016427;28;20021;-76
2023/09/23 10:19:57;;;;;;;1.70;0.60;;;;;;;;;;5016195;28;20076;-76
2023/09/23 10:22:24;;;;;;;3.67;0.90;;;;;;;;;;5015470;28;20188;-76
2023/09/23 10:25:04;;;;;;;2.78;0.70;;;;;;;;;;5015966;28;20030;-76
2023/09/23 10:27:30;;;;;;;3.00;0.80;;;;;;;;;;5016362;28;20073;-75
2023/09/23 10:29:57;;;;;;;2.50;0.90;;;;;;;;;;5016109;28;20172;-76
2023/09/23 10:32:23;;;;;;;2.00;0.77;;;;;;;;;;5015938;28;20014;-74
2023/09/23 10:34:53;;;;;;;3.00;0.90;;;;;;;;;;5015746;28;20057;-73
2023/09/23 10:37:35;;;;;;;1.90;0.75;;;;;;;;;;5016053;28;20014;-74
2023/09/23 10:40:14;;;;;;;2.50;1.05;;;;;;;;;;5015786;28;20102;-73
2023/09/23 10:42:41;;;;;;;2.03;0.88;;;;;;;;;;5015881;28;20731;-75
2023/09/23 10:45:07;;;;;;;5.05;1.00;;;;;;;;;;5015651;28;20026;-75
2023/09/23 10:47:36;;;;;;;3.45;1.13;;;;;;;;;;5015682;28;20080;-76
2023/09/23 10:50:05;;;;;;;3.47;0.70;;;;;;;;;;5015963;28;20033;-75
2023/09/23 10:52:31;;;;;;;1.37;0.80;;;;;;;;;;5016187;28;20026;-75
2023/09/23 10:55:00;;;;;;;2.15;0.63;;;;;;;;;;5015466;28;20017;-76
2023/09/23 10:57:27;;;;;;;0.43;0.40;;;;;;;;;;5015605;28;20022;-75
2023/09/23 10:59:53;;;;;;;1.85;0.63;;;;;;;;;;5015743;28;20030;-76
2023/09/23 11:02:20;;;;;;;1.70;0.63;;;;;;;;;;5015358;28;20021;-76
2023/09/23 11:04:49;;;;;;;1.40;0.50;;;;;;;;;;5015391;28;20033;-76
2023/09/23 11:07:20;;;;;;;2.00;0.68;;;;;;;;;;5015316;28;20077;-76
2023/09/23 11:09:46;;;;;;;3.03;0.80;;;;;;;;;;5015652;28;20496;-76
2023/09/23 11:12:13;;;;;;;3.42;0.88;;;;;;;;;;5015251;28;20472;-76
2023/09/23 11:14:48;;;;;;;0.80;0.77;;;;;;;;;;5015139;28;20033;-76
2023/09/23 11:17:26;;;;;;;3.97;1.15;;;;;;;;;;5014015;28;20036;-76
2023/09/23 11:19:59;;;;;;;1.40;0.90;;;;;;;;;;5015281;28;20076;-76
2023/09/23 11:22:26;;;;;;;2.28;1.02;;;;;;;;;;5014815;28;20125;-76
2023/09/23 11:24:52;;;;;;;1.38;0.55;;;;;;;;;;5015043;28;20021;-76
2023/09/23 11:27:18;;;;;;;1.10;0.65;;;;;;;;;;5015118;28;20045;-76
2023/09/23 11:29:44;;;;;;;1.02;0.75;;;;;;;;;;5015541;28;20030;-76
2023/09/23 11:32:11;;;;;;;1.00;0.63;;;;;;;;;;5015311;28;20030;-76
2023/09/23 11:34:37;;;;;;;2.38;0.88;;;;;;;;;;5015109;28;20494;-76
2023/09/23 11:37:04;;;;;;;2.13;0.80;;;;;;;;;;5014899;28;20034;-75
2023/09/23 11:39:37;;;;;;;0.95;0.80;;;;;;;;;;5014979;28;20033;-75
2023/09/23 11:42:03;;;;;;;0.90;0.70;;;;;;;;;;5014847;28;20014;-76
2023/09/23 11:44:29;;;;;;;1.88;0.90;;;;;;;;;;5014683;28;20572;-75
2023/09/23 11:46:55;;;;;;;2.38;0.73;;;;;;;;;;5014550;28;20017;-76
2023/09/23 11:49:21;;;;;;;5.60;0.90;;;;;;;;;;5014572;28;20026;-76
2023/09/23 11:51:47;;;;;;;2.10;0.75;;;;;;;;;;5013264;28;20551;-75
2023/09/23 11:54:14;;;;;;;2.05;1.05;;;;;;;;;;5014467;28;20044;-75
2023/09/23 11:56:40;;;;;;;1.52;0.60;;;;;;;;;;5014489;28;20026;-76
2023/09/23 11:59:06;;;;;;;1.95;0.80;;;;;;;;;;5014467;28;20038;-76
2023/09/23 12:01:32;;;;;;;2.33;0.85;;;;;;;;;;5014345;28;20037;-76
2023/09/23 12:03:59;;;;;;;2.30;0.60;;;;;;;;;;5014403;28;20021;-76
2023/09/23 12:06:26;;;;;;;1.92;0.80;;;;;;;;;;5014688;28;20022;-76
2023/09/23 12:08:52;;;;;;;3.03;0.90;;;;;;;;;;5014711;28;20034;-76
2023/09/23 12:11:21;;;;;;;4.05;0.60;;;;;;;;;;5014465;28;20044;-76
2023/09/23 12:13:48;;;;;;;0.95;0.40;;;;;;;;;;5013549;28;20014;-77
2023/09/23 12:16:14;;;;;;;0.75;0.40;;;;;;;;;;5013981;28;20029;-76
2023/09/23 12:18:40;;;;;;;1.90;0.57;;;;;;;;;;5013885;28;20041;-76
2023/09/23 12:21:06;;;;;;;2.35;0.55;;;;;;;;;;5009056;28;20046;-76
2023/09/23 12:23:36;;;;;;;1.50;0.50;;;;;;;;;;4994257;28;20448;-76
2023/09/23 12:26:03;;;;;;;1.67;0.60;;;;;;;;;;4994464;28;20037;-76
2023/09/23 12:28:29;;;;;;;1.38;0.60;;;;;;;;;;4994229;28;20030;-76
2023/09/23 12:30:55;;;;;;;2.67;0.70;;;;;;;;;;4994106;28;20019;-76
2023/09/23 12:33:21;;;;;;;1.02;0.50;;;;;;;;;;4993963;28;20369;-76
2023/09/23 12:35:47;;;;;;;1.10;0.40;;;;;;;;;;4994642;28;20122;-76
2023/09/23 12:38:13;;;;;;;0.50;0.35;;;;;;;;;;4994404;28;20029;-76
2023/09/23 12:40:41;;;;;;;1.58;0.40;;;;;;;;;;4994374;28;20034;-76
2023/09/23 12:43:07;;;;;;;0.65;0.25;;;;;;;;;;4994180;28;20101;-77
2023/09/23 12:45:32;;;;;;;2.15;0.40;;;;;;;;;;4993962;28;20489;-77
2023/09/23 12:47:58;;;;;;;0.30;0.20;;;;;;;;;;4993929;28;20034;-77
2023/09/23 12:50:25;;;;;;;1.85;0.43;;;;;;;;;;4993920;28;20026;-77
2023/09/23 12:52:53;;;;;;;0.73;0.30;;;;;;;;;;4993957;28;20030;-77
2023/09/23 12:55:19;;;;;;;1.08;0.20;;;;;;;;;;4994002;28;20098;-77
2023/09/23 12:57:48;;;;;;;0.95;0.20;;;;;;;;;;4993986;28;20030;-76
2023/09/23 13:00:14;;;;;;;1.97;0.30;;;;;;;;;;4993959;28;20039;-77
2023/09/23 13:02:40;;;;;;;2.05;0.40;;;;;;;;;;4993937;28;20108;-76
2023/09/23 13:05:08;;;;;;;1.10;0.40;;;;;;;;;;4993837;28;20037;-76
2023/09/23 13:07:34;;;;;;;1.35;0.28;;;;;;;;;;4992272;28;20030;-76
2023/09/23 13:10:00;;;;;;;0.68;0.20;;;;;;;;;;4993534;28;20113;-76
2023/09/23 13:12:26;;;;;;;2.03;0.47;;;;;;;;;;4985941;28;20034;-76
2023/09/23 13:14:52;;;;;;;1.60;0.20;;;;;;;;;;4988500;28;20035;-76
2023/09/23 13:17:18;;;;;;;1.88;0.35;;;;;;;;;;4993431;28;20050;-76
2023/09/23 13:19:44;;;;;;;3.15;0.50;;;;;;;;;;4993160;28;20533;-77
2023/09/23 13:22:10;;;;;;;1.75;0.50;;;;;;;;;;5008964;28;20049;-76
2023/09/23 13:24:41;;;;;;;2.10;0.30;;;;;;;;;;5012763;28;20045;-76
2023/09/23 13:27:07;;;;;;;1.02;0.40;;;;;;;;;;5012859;28;20026;-76
2023/09/23 13:29:33;;;;;;;2.83;0.50;;;;;;;;;;5012836;28;20036;-75
2023/09/23 13:31:59;;;;;;;2.05;0.55;;;;;;;;;;5013537;28;20403;-76
2023/09/23 13:34:25;;;;;;;4.05;0.50;;;;;;;;;;5013547;28;20446;-77
2023/09/23 13:36:51;;;;;;;0.55;0.40;;;;;;;;;;5013636;28;20033;-77
2023/09/23 13:39:17;;;;;;;1.85;0.30;;;;;;;;;;5009591;28;20034;-77
2023/09/23 13:41:43;;;;;;;1.42;0.30;;;;;;;;;;4993685;28;20061;-77
2023/09/23 13:44:09;;;;;;;0.55;0.35;;;;;;;;;;5010514;28;20084;-75
2023/09/23 13:46:36;;;;;;;1.38;0.40;;;;;;;;;;5013811;28;20030;-75
2023/09/23 13:49:04;;;;;;;1.08;0.30;;;;;;;;;;5012718;28;20453;-74
2023/09/23 13:51:30;;;;;;;2.38;0.38;;;;;;;;;;5012834;28;20436;-74
2023/09/23 13:53:56;;;;;;;0.85;0.20;;;;;;;;;;5013093;28;20026;-75
2023/09/23 13:56:22;;;;;;;1.25;0.30;;;;;;;;;;5012945;28;20090;-75
2023/09/23 13:58:48;;;;;;;1.25;0.40;;;;;;;;;;5013273;28;20365;-75
2023/09/23 14:01:14;;;;;;;0.77;0.30;;;;;;;;;;5012946;28;20503;-75
2023/09/23 14:03:40;;;;;;;0.88;0.22;;;;;;;;;;5012762;28;20026;-75
2023/09/23 14:06:08;;;;;;;1.10;0.20;;;;;;;;;;5012908;28;20084;-75
2023/09/23 14:08:34;;;;;;;1.23;0.32;;;;;;;;;;5013042;28;20512;-76
2023/09/23 14:11:04;;;;;;;0.30;0.30;;;;;;;;;;5012928;28;20481;-75
2023/09/23 14:13:31;;;;;;;1.10;0.30;;;;;;;;;;5012992;28;20109;-75
2023/09/23 14:15:57;;;;;;;0.73;0.30;;;;;;;;;;5012345;28;20018;-75
2023/09/23 14:18:23;;;;;;;1.48;0.40;;;;;;;;;;4995518;28;20447;-75
2023/09/23 14:20:49;;;;;;;1.65;0.30;;;;;;;;;;5012826;28;20112;-75
2023/09/23 14:23:15;;;;;;;4.43;0.43;;;;;;;;;;5012819;28;20088;-75
2023/09/23 14:25:41;;;;;;;3.40;0.40;;;;;;;;;;5012867;28;20088;-75
2023/09/23 14:28:07;;;;;;;0.60;0.28;;;;;;;;;;5012822;28;20030;-75
2023/09/23 14:30:33;;;;;;;5.28;0.68;;;;;;;;;;5012801;28;20025;-75
2023/09/23 14:32:59;;;;;;;2.42;0.20;;;;;;;;;;5012557;28;20104;-74
2023/09/23 14:35:26;;;;;;;1.40;0.32;;;;;;;;;;5012521;28;20026;-74
2023/09/23 14:37:52;;;;;;;1.00;0.30;;;;;;;;;;5012368;28;20025;-75
2023/09/23 14:40:19;;;;;;;3.38;0.30;;;;;;;;;;5012547;28;20030;-75
2023/09/23 14:42:45;;;;;;;4.25;0.47;;;;;;;;;;5012669;28;20037;-75